Time;durP1;ratioP1;P1;durP2;ratioP2;P2;SDS_P1;SDS_P2;PMS_P1;PMS_P2;Temp;Humidity;BMP_temperature;BMP_pressure;BME280_temperature;BME280_humidity;BME280_pressure;Samples;Min_cycle;Max_cycle;Signal;HPM_P1;HPM_P2
2021/07/04 00:00:36;;;;;;;6.22;4.43;;;;;;;22.47;49.80;99407.53;5031699;28;20081;-75
2021/07/04 00:03:03;;;;;;;5.45;4.93;;;;;;;22.50;50.16;99401.63;5034448;28;20028;-75
2021/07/04 00:05:40;;;;;;;5.03;4.53;;;;;;;22.51;49.92;99413.25;5038854;28;20232;-75
2021/07/04 00:08:07;;;;;;;5.78;4.93;;;;;;;22.54;49.85;99410.88;5037661;28;20043;-75
2021/07/04 00:10:37;;;;;;;4.75;4.28;;;;;;;22.49;49.95;99410.78;5031673;28;20200;-75
2021/07/04 00:13:03;;;;;;;5.88;4.93;;;;;;;22.55;49.98;99414.38;5032122;28;20029;-75
2021/07/04 00:15:34;;;;;;;7.25;4.68;;;;;;;22.53;49.92;99411.94;5036782;28;20304;-75
2021/07/04 00:17:59;;;;;;;5.40;4.90;;;;;;;22.61;49.89;99399.91;5040478;28;20094;-75
2021/07/04 00:20:25;;;;;;;10.68;5.00;;;;;;;22.38;50.59;99387.44;5031148;28;20030;-75
2021/07/04 00:22:54;;;;;;;7.93;4.90;;;;;;;22.42;50.53;99393.16;5036824;28;20105;-75
2021/07/04 00:25:21;;;;;;;5.28;4.78;;;;;;;22.27;51.12;99381.06;5041913;28;20168;-75
2021/07/04 00:27:46;;;;;;;8.38;5.20;;;;;;;22.19;51.67;99392.28;5043335;28;20249;-74
2021/07/04 00:30:14;;;;;;;7.03;4.93;;;;;;;22.14;51.88;99384.09;5036840;28;20037;-74
2021/07/04 00:32:40;;;;;;;7.60;5.05;;;;;;;21.97;52.23;99373.28;5032968;28;20240;-74
2021/07/04 00:35:07;;;;;;;6.75;5.10;;;;;;;22.04;52.38;99383.94;5036175;28;20030;-74
2021/07/04 00:37:33;;;;;;;5.95;5.22;;;;;;;21.96;52.33;99379.75;5036049;28;20097;-74
2021/07/04 00:39:58;;;;;;;5.80;4.95;;;;;;;21.89;52.91;99380.97;5041606;28;20041;-75
2021/07/04 00:42:24;;;;;;;5.00;4.50;;;;;;;21.79;52.80;99375.38;5033403;28;20064;-75
2021/07/04 00:44:51;;;;;;;5.20;4.70;;;;;;;21.76;53.32;99378.56;5040181;28;20140;-75
2021/07/04 00:47:16;;;;;;;6.32;5.03;;;;;;;21.64;53.80;99373.25;5035083;28;20040;-75
2021/07/04 00:49:42;;;;;;;9.32;5.38;;;;;;;21.65;54.06;99374.88;5061323;28;20025;-75
2021/07/04 00:52:08;;;;;;;7.70;4.80;;;;;;;21.70;54.05;99368.75;5032514;28;20033;-75
2021/07/04 00:54:33;;;;;;;7.35;5.32;;;;;;;21.67;54.58;99378.13;5039123;28;20026;-75
2021/07/04 00:56:59;;;;;;;6.30;4.95;;;;;;;21.54;54.65;99381.97;5036948;28;20040;-75
2021/07/04 00:59:25;;;;;;;5.80;4.65;;;;;;;21.53;54.61;99376.81;5031393;28;20315;-75
2021/07/04 01:01:50;;;;;;;6.20;4.55;;;;;;;21.55;54.32;99372.00;5038129;28;20025;-75
2021/07/04 01:04:16;;;;;;;7.13;5.05;;;;;;;21.58;54.37;99379.59;5034514;28;20045;-75
2021/07/04 01:06:42;;;;;;;7.13;5.55;;;;;;;21.56;53.80;99373.63;5034092;28;20043;-75
2021/07/04 01:09:08;;;;;;;5.97;5.03;;;;;;;21.68;53.88;99371.69;5034789;28;20025;-75
2021/07/04 01:11:34;;;;;;;6.88;5.10;;;;;;;21.77;53.45;99374.81;5040711;28;20211;-75
2021/07/04 01:14:00;;;;;;;6.25;4.78;;;;;;;21.67;53.49;99370.88;5035776;28;20052;-75
2021/07/04 01:16:26;;;;;;;5.32;4.82;;;;;;;21.67;53.24;99361.97;5030088;28;20068;-75
2021/07/04 01:18:52;;;;;;;6.18;4.75;;;;;;;21.71;53.21;99379.28;5043546;28;20032;-74
2021/07/04 01:21:20;;;;;;;9.80;4.82;;;;;;;21.79;53.24;99375.38;5036238;28;20212;-74
2021/07/04 01:23:46;;;;;;;5.60;5.10;;;;;;;21.95;53.05;99372.72;5030768;28;20303;-74
2021/07/04 01:26:11;;;;;;;6.63;4.90;;;;;;;21.94;52.85;99373.78;5036266;28;20043;-74
2021/07/04 01:28:37;;;;;;;5.78;4.53;;;;;;;21.85;53.08;99364.47;5035824;28;20243;-75
2021/07/04 01:31:03;;;;;;;7.18;4.88;;;;;;;21.88;52.91;99355.91;5073325;28;20226;-75
2021/07/04 01:33:30;;;;;;;6.15;4.88;;;;;;;21.67;53.85;99365.47;5031593;28;20080;-75
2021/07/04 01:35:55;;;;;;;6.32;5.20;;;;;;;21.66;53.60;99358.47;5029045;28;20026;-75
2021/07/04 01:38:21;;;;;;;6.15;4.78;;;;;;;21.74;53.45;99364.50;5028982;28;20306;-75
2021/07/04 01:40:47;;;;;;;5.18;4.68;;;;;;;21.63;53.65;99356.25;5060698;28;20052;-75
2021/07/04 01:43:13;;;;;;;6.05;5.13;;;;;;;21.77;53.26;99347.84;5032383;28;20025;-75
2021/07/04 01:45:39;;;;;;;6.32;5.30;;;;;;;21.80;53.15;99358.97;5036665;28;20052;-75
2021/07/04 01:48:05;;;;;;;9.88;5.53;;;;;;;21.63;53.32;99350.03;5035077;28;20326;-75
2021/07/04 01:50:34;;;;;;;8.13;5.13;;;;;;;21.67;53.53;99354.72;5035160;28;20057;-75
2021/07/04 01:53:00;;;;;;;5.22;4.70;;;;;;;21.64;53.55;99355.19;5036783;28;20139;-75
2021/07/04 01:55:26;;;;;;;10.65;5.25;;;;;;;21.59;53.91;99349.72;5031273;28;20045;-75
2021/07/04 01:57:52;;;;;;;5.95;5.30;;;;;;;21.61;53.95;99352.97;5029969;28;20037;-75
2021/07/04 02:00:21;;;;;;;5.50;5.00;;;;;;;21.65;53.78;99354.13;5038933;28;20040;-75
2021/07/04 02:02:52;;;;;;;6.88;5.30;;;;;;;21.66;53.64;99354.94;5034367;28;20076;-75
2021/07/04 02:05:18;;;;;;;9.55;5.25;;;;;;;21.60;53.95;99364.00;5039501;28;20041;-75
2021/07/04 02:07:43;;;;;;;8.00;5.20;;;;;;;21.56;54.04;99349.38;5031650;28;20270;-75
2021/07/04 02:10:14;;;;;;;6.07;5.30;;;;;;;21.75;53.87;99364.25;5032573;28;20108;-75
2021/07/04 02:12:40;;;;;;;8.45;5.55;;;;;;;21.78;53.75;99371.03;5036938;28;20116;-74
2021/07/04 02:15:27;;;;;;;5.88;5.10;;;;;;;21.78;53.59;99369.16;5040753;28;20045;-74
2021/07/04 02:17:53;;;;;;;6.05;5.45;;;;;;;21.78;53.54;99371.88;5029039;28;20033;-74
2021/07/04 02:20:32;;;;;;;7.40;5.15;;;;;;;21.83;53.13;99374.66;5033559;28;20026;-74
2021/07/04 02:23:11;;;;;;;11.25;5.25;;;;;;;21.79;53.12;99364.59;5034819;28;20030;-75
2021/07/04 02:25:38;;;;;;;6.68;4.95;;;;;;;21.85;52.99;99371.75;5039568;28;20076;-75
2021/07/04 02:28:05;;;;;;;5.82;5.25;;;;;;;21.75;53.34;99372.34;5041472;28;20124;-75
2021/07/04 02:30:31;;;;;;;5.65;5.05;;;;;;;21.86;53.36;99368.78;5035087;28;20227;-75
2021/07/04 02:33:01;;;;;;;11.55;5.35;;;;;;;21.79;53.63;99375.38;5046297;28;20029;-75
2021/07/04 02:35:27;;;;;;;7.90;5.18;;;;;;;21.92;53.46;99377.78;5024285;28;20026;-75
2021/07/04 02:37:52;;;;;;;6.72;5.28;;;;;;;21.77;54.24;99381.00;5037435;28;20288;-75
2021/07/04 02:40:18;;;;;;;5.93;5.32;;;;;;;21.61;54.62;99384.50;5034770;28;20087;-75
2021/07/04 02:42:43;;;;;;;5.47;4.97;;;;;;;21.58;54.79;99374.22;5035091;28;20041;-75
2021/07/04 02:45:10;;;;;;;5.25;4.75;;;;;;;21.34;55.32;99370.81;5031285;28;20456;-75
2021/07/04 02:47:35;;;;;;;7.35;4.30;;;;;;;21.39;55.36;99378.16;5034845;28;20017;-75
2021/07/04 02:50:01;;;;;;;5.68;5.03;;;;;;;21.30;55.48;99373.16;5034506;28;20080;-75
2021/07/04 02:52:27;;;;;;;5.85;5.05;;;;;;;21.26;56.02;99372.00;5025503;28;20029;-75
2021/07/04 02:54:52;;;;;;;5.43;4.50;;;;;;;21.35;55.86;99383.22;5039817;28;20059;-75
2021/07/04 02:57:17;;;;;;;7.88;4.93;;;;;;;21.34;55.63;99392.34;5034158;28;20033;-75
2021/07/04 02:59:43;;;;;;;5.20;4.70;;;;;;;21.28;55.72;99385.25;5034841;28;20040;-75
2021/07/04 03:02:08;;;;;;;5.88;4.60;;;;;;;21.30;55.69;99396.59;5035811;28;20036;-75
2021/07/04 03:04:34;;;;;;;6.95;4.95;;;;;;;21.45;55.18;99393.38;5038708;28;20082;-75
2021/07/04 03:07:00;;;;;;;6.55;5.13;;;;;;;21.34;55.01;99392.34;5041966;28;20037;-74
2021/07/04 03:09:27;;;;;;;7.45;5.32;;;;;;;21.31;54.79;99384.75;5041921;28;20048;-74
2021/07/04 03:11:55;;;;;;;5.90;4.82;;;;;;;21.47;54.52;99397.44;5041915;28;20038;-74
2021/07/04 03:14:21;;;;;;;6.07;4.70;;;;;;;21.37;54.41;99391.88;5040699;28;20378;-74
2021/07/04 03:16:46;;;;;;;5.63;5.10;;;;;;;21.36;54.87;99392.94;5041793;28;20037;-75
2021/07/04 03:19:12;;;;;;;6.32;4.72;;;;;;;21.34;54.82;99398.56;5041790;28;20045;-75
2021/07/04 03:21:37;;;;;;;5.85;4.65;;;;;;;21.39;54.85;99408.63;5042030;28;20029;-75
2021/07/04 03:24:03;;;;;;;6.80;5.28;;;;;;;21.39;54.82;99410.50;5040388;28;20044;-75
2021/07/04 03:26:29;;;;;;;8.73;5.07;;;;;;;21.28;54.92;99394.13;5041655;28;20060;-75
2021/07/04 03:28:54;;;;;;;5.82;5.22;;;;;;;21.47;54.70;99416.31;5040435;28;20119;-75
2021/07/04 03:31:19;;;;;;;9.35;6.43;;;;;;;21.55;54.75;99431.25;5040577;28;20048;-75
2021/07/04 03:33:45;;;;;;;6.90;5.40;;;;;;;21.80;53.71;99428.22;5041964;28;20094;-76
2021/07/04 03:36:10;;;;;;;9.43;5.10;;;;;;;21.78;53.75;99431.16;5041660;28;20033;-76
2021/07/04 03:38:36;;;;;;;8.38;4.95;;;;;;;21.93;53.21;99422.53;5041577;28;20034;-76
2021/07/04 03:41:01;;;;;;;6.55;5.53;;;;;;;21.99;53.03;99424.28;5041489;28;20044;-76
2021/07/04 03:43:27;;;;;;;6.45;4.78;;;;;;;22.10;53.22;99431.50;5041820;28;20393;-76
2021/07/04 03:45:53;;;;;;;6.68;5.00;;;;;;;22.20;52.55;99431.66;5041716;28;20037;-76
2021/07/04 03:48:18;;;;;;;9.05;6.00;;;;;;;22.25;52.71;99447.91;5043059;28;20037;-76
2021/07/04 03:50:44;;;;;;;5.82;4.85;;;;;;;22.38;52.39;99443.25;5045803;28;20026;-76
2021/07/04 03:53:10;;;;;;;5.60;4.63;;;;;;;22.50;52.31;99454.78;5035524;28;20065;-76
2021/07/04 03:55:36;;;;;;;6.30;5.45;;;;;;;22.37;52.66;99452.41;5036108;28;20030;-76
2021/07/04 03:58:02;;;;;;;8.93;6.18;;;;;;;22.49;52.20;99447.75;5074175;28;20029;-76
2021/07/04 04:00:27;;;;;;;10.57;5.95;;;;;;;22.48;52.28;99446.09;5032565;28;20029;-77
2021/07/04 04:02:53;;;;;;;8.93;4.93;;;;;;;22.65;51.89;99448.78;5045832;28;20026;-74
2021/07/04 04:05:18;;;;;;;16.20;11.63;;;;;;;22.62;51.98;99442.81;5039911;28;20040;-75
2021/07/04 04:07:44;;;;;;;8.73;4.70;;;;;;;22.60;51.57;99438.75;5045017;28;20040;-75
2021/07/04 04:10:11;;;;;;;9.75;6.13;;;;;;;22.70;51.82;99449.69;5042741;28;20017;-75
2021/07/04 04:12:37;;;;;;;6.32;4.85;;;;;;;22.51;52.18;99453.72;5036755;28;20382;-76
2021/07/04 04:15:05;;;;;;;7.25;4.45;;;;;;;22.55;51.87;99455.66;5038745;28;20033;-75
2021/07/04 04:17:30;;;;;;;5.13;4.53;;;;;;;22.54;52.03;99455.91;5038044;28;20037;-76
2021/07/04 04:19:56;;;;;;;7.88;4.78;;;;;;;22.62;52.00;99459.00;5031914;28;20034;-75
2021/07/04 04:22:22;;;;;;;10.43;5.50;;;;;;;22.77;51.25;99458.41;5042269;28;20221;-76
2021/07/04 04:24:48;;;;;;;8.75;4.57;;;;;;;22.96;50.45;99450.91;5042524;28;20033;-76
2021/07/04 04:27:14;;;;;;;6.32;4.28;;;;;;;23.05;50.29;99462.09;5035706;28;20315;-76
2021/07/04 04:29:39;;;;;;;5.15;4.57;;;;;;;22.97;50.59;99465.22;5038408;28;20041;-75
2021/07/04 04:32:05;;;;;;;5.53;3.97;;;;;;;22.86;50.69;99475.03;5036811;28;20013;-76
2021/07/04 04:34:31;;;;;;;4.32;3.92;;;;;;;22.93;50.28;99473.81;5039069;28;20061;-75
2021/07/04 04:36:56;;;;;;;5.55;3.60;;;;;;;23.29;49.56;99468.88;5036786;28;20059;-75
2021/07/04 04:39:22;;;;;;;8.23;4.22;;;;;;;23.54;48.89;99465.66;5033530;28;20039;-76
2021/07/04 04:41:50;;;;;;;5.72;3.95;;;;;;;23.81;48.54;99457.59;5035366;28;20366;-76
2021/07/04 04:44:16;;;;;;;6.00;4.10;;;;;;;23.85;48.26;99467.66;5039414;28;20061;-76
2021/07/04 04:46:42;;;;;;;6.65;3.67;;;;;;;24.08;48.25;99457.59;5040522;28;20366;-76
2021/07/04 04:49:10;;;;;;;6.13;3.80;;;;;;;24.24;47.44;99466.66;5039104;28;20045;-74
2021/07/04 04:51:35;;;;;;;6.53;3.70;;;;;;;24.35;47.51;99461.13;5037786;28;20334;-74
2021/07/04 04:54:00;;;;;;;5.60;3.50;;;;;;;24.38;46.55;99457.88;5036284;28;20041;-74
2021/07/04 04:56:26;;;;;;;6.93;3.60;;;;;;;24.45;46.75;99452.25;5040291;28;20500;-74
2021/07/04 04:58:51;;;;;;;5.53;3.45;;;;;;;24.88;45.57;99453.88;5039042;28;20059;-74
2021/07/04 05:01:17;;;;;;;5.97;3.40;;;;;;;25.23;44.71;99445.16;5031663;28;20033;-75
2021/07/04 05:03:44;;;;;;;6.72;4.00;;;;;;;25.41;43.91;99433.84;5030679;28;20335;-75
2021/07/04 05:06:10;;;;;;;5.18;3.90;;;;;;;25.74;43.83;99434.50;5059747;28;20080;-75
2021/07/04 05:08:35;;;;;;;5.50;3.30;;;;;;;25.97;43.13;99447.53;5074836;28;20029;-76
2021/07/04 05:11:01;;;;;;;6.40;3.35;;;;;;;25.81;42.79;99442.38;5033048;28;20029;-75
2021/07/04 05:13:26;;;;;;;3.72;3.42;;;;;;;25.76;43.41;99446.69;5033329;28;20052;-75
2021/07/04 05:15:52;;;;;;;6.45;3.63;;;;;;;25.99;43.21;99437.22;5063019;28;20412;-75
2021/07/04 05:18:17;;;;;;;4.65;3.33;;;;;;;26.15;42.42;99437.25;5028573;28;20377;-75
2021/07/04 05:20:43;;;;;;;7.25;3.60;;;;;;;26.38;42.48;99447.59;5035418;28;20030;-75
2021/07/04 05:23:08;;;;;;;5.70;3.33;;;;;;;26.26;42.41;99456.00;5037988;28;20052;-75
2021/07/04 05:25:34;;;;;;;6.18;3.00;;;;;;;26.53;42.71;99458.44;5033507;28;20295;-75
2021/07/04 05:27:59;;;;;;;3.75;3.15;;;;;;;26.78;42.53;99464.91;5036293;28;20029;-75
2021/07/04 05:30:25;;;;;;;4.00;2.92;;;;;;;27.30;41.25;99462.63;5068302;28;20021;-75
2021/07/04 05:32:50;;;;;;;7.53;3.35;;;;;;;27.65;40.49;99466.28;5029373;28;20037;-74
2021/07/04 05:35:16;;;;;;;4.00;2.95;;;;;;;27.64;40.40;99462.75;5038115;28;20025;-73
2021/07/04 05:37:41;;;;;;;4.05;3.15;;;;;;;27.97;40.03;99471.25;5031702;28;20109;-74
2021/07/04 05:40:14;;;;;;;5.40;3.15;;;;;;;28.09;38.91;99460.00;5032761;28;20257;-74
2021/07/04 05:42:43;;;;;;;6.00;3.22;;;;;;;27.98;38.93;99470.16;5037687;28;20339;-75
2021/07/04 05:45:11;;;;;;;4.45;3.03;;;;;;;28.06;39.10;99468.75;5036792;28;20300;-75
2021/07/04 05:47:37;;;;;;;4.15;2.90;;;;;;;28.20;38.82;99469.75;5032993;28;20195;-75
2021/07/04 05:50:03;;;;;;;3.80;2.80;;;;;;;28.67;38.54;99474.53;5037493;28;20080;-75
2021/07/04 05:52:30;;;;;;;7.15;2.47;;;;;;;28.63;37.93;99467.22;5037160;28;20065;-75
2021/07/04 05:54:56;;;;;;;6.40;3.10;;;;;;;28.83;38.09;99476.03;5068416;28;20208;-75
2021/07/04 05:57:21;;;;;;;3.88;2.70;;;;;;;29.07;37.55;99478.78;5033333;28;20033;-75
2021/07/04 05:59:47;;;;;;;6.38;3.17;;;;;;;29.24;37.06;99479.16;5033216;28;20041;-75
2021/07/04 06:02:12;;;;;;;6.60;3.28;;;;;;;29.52;36.80;99465.75;5032136;28;20021;-75
2021/07/04 06:04:37;;;;;;;3.53;2.53;;;;;;;29.82;35.95;99465.31;5041706;28;20216;-75
2021/07/04 06:07:03;;;;;;;4.05;2.83;;;;;;;29.54;36.01;99472.53;5043538;28;20380;-75
2021/07/04 06:09:29;;;;;;;3.08;2.78;;;;;;;29.64;35.75;99459.84;5065424;28;20212;-75
2021/07/04 06:11:54;;;;;;;3.88;2.95;;;;;;;29.71;35.78;99476.66;5026878;28;20045;-75
2021/07/04 06:14:19;;;;;;;4.32;2.85;;;;;;;29.62;36.13;99464.78;5030603;28;20041;-73
2021/07/04 06:16:45;;;;;;;6.68;3.10;;;;;;;29.55;35.95;99462.41;5038702;28;20241;-74
2021/07/04 06:19:10;;;;;;;3.53;2.80;;;;;;;29.45;36.14;99465.28;5030839;28;20068;-74
2021/07/04 06:21:36;;;;;;;4.60;3.20;;;;;;;29.36;36.19;99464.28;5031374;28;20074;-73
2021/07/04 06:24:02;;;;;;;7.03;3.00;;;;;;;29.68;35.53;99467.16;5031815;28;20300;-75
2021/07/04 06:26:27;;;;;;;3.40;3.00;;;;;;;29.55;36.69;99455.06;5033016;28;20374;-75
2021/07/04 06:28:53;;;;;;;3.80;2.95;;;;;;;29.67;35.92;99465.53;5037889;28;20045;-75
2021/07/04 06:31:18;;;;;;;4.63;2.72;;;;;;;29.81;35.33;99458.22;5036367;28;20245;-75
2021/07/04 06:33:46;;;;;;;5.82;2.78;;;;;;;29.77;36.08;99448.19;5030879;28;20276;-75
2021/07/04 06:36:12;;;;;;;4.65;2.78;;;;;;;30.30;34.72;99451.50;5040620;28;20021;-75
2021/07/04 06:38:37;;;;;;;4.72;2.70;;;;;;;30.29;34.85;99449.88;5033849;28;20041;-75
2021/07/04 06:41:03;;;;;;;3.90;2.70;;;;;;;30.29;34.50;99447.16;5031181;28;20034;-75
2021/07/04 06:43:28;;;;;;;3.40;2.85;;;;;;;29.93;35.33;99443.31;5035439;28;20029;-75
2021/07/04 06:45:54;;;;;;;5.22;3.10;;;;;;;29.97;35.54;99438.88;5029752;28;20045;-75
2021/07/04 06:48:19;;;;;;;4.13;2.72;;;;;;;30.21;34.87;99438.81;5032087;28;20040;-75
2021/07/04 06:50:45;;;;;;;5.13;3.15;;;;;;;30.12;35.50;99441.41;5034247;28;20036;-73
2021/07/04 06:53:10;;;;;;;8.15;3.22;;;;;;;30.38;35.06;99425.41;5038365;28;20034;-73
2021/07/04 06:55:36;;;;;;;6.20;3.17;;;;;;;30.88;34.30;99426.41;5030180;28;20042;-74
2021/07/04 06:58:01;;;;;;;4.00;2.85;;;;;;;31.11;33.34;99422.66;5031204;28;20032;-73
2021/07/04 07:00:27;;;;;;;3.63;2.75;;;;;;;31.41;33.13;99415.78;5029925;28;20032;-74
2021/07/04 07:02:53;;;;;;;6.63;2.92;;;;;;;31.37;33.16;99408.50;5033627;28;20033;-75
2021/07/04 07:05:19;;;;;;;6.43;3.05;;;;;;;31.21;32.82;99412.66;5033375;28;20057;-75
2021/07/04 07:07:45;;;;;;;7.00;3.05;;;;;;;31.52;32.23;99415.56;5024527;28;20030;-75
2021/07/04 07:10:13;;;;;;;11.45;3.25;;;;;;;31.26;32.87;99410.66;5038289;28;20091;-75
2021/07/04 07:12:39;;;;;;;6.30;2.97;;;;;;;31.34;31.64;99389.97;5040157;28;20045;-75
2021/07/04 07:15:05;;;;;;;4.90;2.88;;;;;;;31.53;31.96;99384.34;5063014;28;20210;-75
2021/07/04 07:17:31;;;;;;;6.53;3.00;;;;;;;31.74;31.69;99397.25;5038832;28;20018;-75
2021/07/04 07:19:56;;;;;;;5.50;3.03;;;;;;;32.01;30.87;99395.53;5031998;28;20025;-75
2021/07/04 07:22:22;;;;;;;6.05;3.10;;;;;;;32.20;30.46;99393.38;5035499;28;20029;-75
2021/07/04 07:24:48;;;;;;;3.60;2.83;;;;;;;32.36;31.03;99402.88;5035927;28;20218;-75
2021/07/04 07:27:15;;;;;;;3.58;2.75;;;;;;;32.48;29.97;99387.78;5039545;28;20096;-75
2021/07/04 07:29:40;;;;;;;5.72;2.63;;;;;;;32.32;30.53;99390.94;5039839;28;20350;-75
2021/07/04 07:32:07;;;;;;;7.57;3.10;;;;;;;32.51;29.97;99398.13;5035945;28;20104;-73
2021/07/04 07:34:32;;;;;;;6.30;3.10;;;;;;;32.46;30.12;99387.28;5041444;28;20201;-74
2021/07/04 07:36:58;;;;;;;6.13;2.60;;;;;;;32.60;30.08;99388.81;5040138;28;20105;-74
2021/07/04 07:39:23;;;;;;;4.70;3.05;;;;;;;32.88;29.95;99380.38;5068832;28;20033;-74
2021/07/04 07:41:49;;;;;;;4.43;2.90;;;;;;;32.83;29.81;99386.03;5036006;28;20017;-73
2021/07/04 07:44:15;;;;;;;4.25;3.05;;;;;;;32.76;30.46;99377.41;5037688;28;20288;-76
2021/07/04 07:46:41;;;;;;;4.95;3.00;;;;;;;32.54;30.22;99378.31;5037668;28;20030;-76
2021/07/04 07:49:07;;;;;;;5.22;3.00;;;;;;;32.46;29.88;99368.91;5038860;28;20037;-76
2021/07/04 07:51:33;;;;;;;5.30;2.92;;;;;;;32.97;29.35;99373.00;5036068;28;20088;-75
2021/07/04 07:53:58;;;;;;;4.13;2.67;;;;;;;32.81;29.08;99372.63;5035458;28;20153;-77
2021/07/04 07:56:23;;;;;;;6.78;2.78;;;;;;;32.58;29.55;99365.59;5032768;28;20037;-76
2021/07/04 07:58:50;;;;;;;6.57;3.20;;;;;;;32.74;29.76;99366.78;5037720;28;20029;-75
2021/07/04 08:01:16;;;;;;;5.93;3.20;;;;;;;33.10;29.67;99357.53;5053403;28;20036;-75
2021/07/04 08:03:42;;;;;;;7.07;3.45;;;;;;;33.03;29.13;99366.22;5039561;28;20350;-75
2021/07/04 08:06:08;;;;;;;5.55;2.72;;;;;;;33.26;28.68;99364.16;5039587;28;20025;-75
2021/07/04 08:08:33;;;;;;;9.13;3.08;;;;;;;33.45;28.79;99361.97;5042759;28;20323;-76
2021/07/04 08:10:59;;;;;;;5.18;2.95;;;;;;;33.59;28.72;99357.13;5034692;28;20327;-76
2021/07/04 08:13:25;;;;;;;5.28;3.30;;;;;;;33.33;28.20;99361.00;5040798;28;20350;-74
2021/07/04 08:15:50;;;;;;;4.38;3.38;;;;;;;32.91;28.58;99360.56;5031538;28;20033;-74
2021/07/04 08:18:16;;;;;;;4.20;3.10;;;;;;;33.21;28.47;99361.56;5035130;28;20025;-74
2021/07/04 08:20:41;;;;;;;4.72;2.80;;;;;;;33.54;29.04;99360.03;5037827;28;20067;-74
2021/07/04 08:23:08;;;;;;;6.38;3.00;;;;;;;33.47;28.01;99350.69;5035836;28;20056;-74
2021/07/04 08:25:34;;;;;;;4.93;2.80;;;;;;;33.61;27.89;99340.34;5041544;28;20323;-76
2021/07/04 08:28:00;;;;;;;8.60;3.50;;;;;;;33.24;27.89;99352.69;5033300;28;20091;-75
2021/07/04 08:30:25;;;;;;;4.63;3.25;;;;;;;33.10;27.72;99355.59;5075933;28;20022;-75
2021/07/04 08:32:50;;;;;;;5.88;3.28;;;;;;;33.61;28.42;99337.59;5034619;28;20042;-75
2021/07/04 08:35:16;;;;;;;3.88;2.97;;;;;;;33.92;27.42;99340.97;5034777;28;20035;-75
2021/07/04 08:37:41;;;;;;;5.57;3.15;;;;;;;33.63;27.83;99340.81;5028186;28;20320;-75
2021/07/04 08:40:08;;;;;;;6.30;3.08;;;;;;;33.30;27.55;99346.00;5072008;28;20266;-75
2021/07/04 08:42:33;;;;;;;7.55;3.45;;;;;;;33.12;27.47;99345.09;5036275;28;20223;-76
2021/07/04 08:44:59;;;;;;;6.05;3.05;;;;;;;33.38;27.96;99345.19;5036819;28;20025;-76
2021/07/04 08:47:25;;;;;;;4.82;2.97;;;;;;;33.90;27.09;99336.94;5030560;28;20342;-75
2021/07/04 08:49:52;;;;;;;5.78;3.05;;;;;;;34.33;26.77;99330.53;5029986;28;20053;-75
2021/07/04 08:52:18;;;;;;;6.50;3.17;;;;;;;33.95;26.52;99321.09;5038163;28;20313;-76
2021/07/04 08:54:44;;;;;;;7.63;3.03;;;;;;;34.00;26.67;99322.84;5039652;28;20033;-76
2021/07/04 08:57:11;;;;;;;7.20;3.00;;;;;;;33.42;26.67;99323.41;5038716;28;20100;-74
2021/07/04 08:59:41;;;;;;;4.88;3.47;;;;;;;34.00;27.06;99325.59;5043750;28;20052;-74
2021/07/04 09:02:11;;;;;;;3.80;2.60;;;;;;;33.90;26.46;99306.72;5036423;28;20037;-74
2021/07/04 09:04:38;;;;;;;6.25;3.22;;;;;;;34.09;26.53;99317.34;5037901;28;20049;-74
2021/07/04 09:07:04;;;;;;;3.28;2.67;;;;;;;33.74;26.87;99314.63;5041482;28;20033;-74
2021/07/04 09:09:32;;;;;;;4.63;2.88;;;;;;;34.31;27.25;99316.28;5033925;28;20099;-75
2021/07/04 09:12:12;;;;;;;4.57;3.17;;;;;;;33.83;25.95;99311.91;5028939;28;20030;-75
2021/07/04 09:14:42;;;;;;;3.88;3.08;;;;;;;33.82;26.71;99318.53;5029127;28;20034;-75
2021/07/04 09:17:11;;;;;;;8.30;3.40;;;;;;;33.91;27.31;99306.41;5039962;28;20311;-75
2021/07/04 09:20:02;;;;;;;4.68;3.40;;;;;;;33.51;27.25;99308.53;5053085;28;20402;-75
2021/07/04 09:22:37;;;;;;;7.80;3.47;;;;;;;33.58;28.20;99303.34;5036466;28;20040;-75
2021/07/04 09:25:06;;;;;;;4.70;3.63;;;;;;;33.73;28.09;99301.25;5040010;28;20068;-75
2021/07/04 09:27:31;;;;;;;7.10;3.50;;;;;;;33.91;27.41;99300.91;5036885;28;20128;-75
2021/07/04 09:29:57;;;;;;;4.65;3.30;;;;;;;33.71;26.77;99304.31;5032450;28;20037;-75
2021/07/04 09:32:27;;;;;;;5.88;3.22;;;;;;;33.30;27.22;99310.31;5027335;28;20037;-75
2021/07/04 09:35:06;;;;;;;6.00;3.05;;;;;;;33.06;27.81;99308.00;5036266;28;20054;-75
2021/07/04 09:37:39;;;;;;;4.03;3.55;;;;;;;33.08;28.19;99304.91;5035394;28;20096;-75
2021/07/04 09:40:14;;;;;;;6.85;3.38;;;;;;;33.04;27.94;99301.22;5035795;28;20025;-74
2021/07/04 09:43:06;;;;;;;7.47;3.42;;;;;;;32.27;28.21;99311.63;5027522;28;20034;-74
2021/07/04 09:45:54;;;;;;;7.20;3.22;;;;;;;32.12;28.73;99298.28;5034062;28;20102;-74
2021/07/04 09:48:23;;;;;;;3.60;3.13;;;;;;;32.34;28.83;99298.28;5026844;28;20029;-74
2021/07/04 09:50:53;;;;;;;6.05;3.15;;;;;;;32.51;27.59;99285.75;5035804;28;20033;-76
2021/07/04 09:53:20;;;;;;;8.50;3.47;;;;;;;32.00;29.07;99292.59;5042397;28;20052;-75
2021/07/04 09:55:50;;;;;;;4.05;3.65;;;;;;;31.66;29.17;99293.16;5030833;28;20033;-75
2021/07/04 09:58:17;;;;;;;5.75;2.90;;;;;;;31.67;29.54;99284.63;5030646;28;20033;-75
2021/07/04 10:00:45;;;;;;;4.40;3.10;;;;;;;31.62;28.29;99284.75;5031151;28;20335;-75
2021/07/04 10:03:20;;;;;;;4.47;2.80;;;;;;;31.89;28.12;99281.09;5042774;28;20048;-75
2021/07/04 10:05:52;;;;;;;3.97;3.10;;;;;;;31.83;28.00;99274.13;5070045;28;20179;-75
2021/07/04 10:08:25;;;;;;;17.25;4.20;;;;;;;31.76;27.07;99268.28;5035530;28;20100;-75
2021/07/04 10:11:11;;;;;;;3.83;3.08;;;;;;;31.63;28.46;99267.22;5031883;28;20064;-75
2021/07/04 10:13:38;;;;;;;5.45;2.72;;;;;;;31.66;28.10;99268.53;5037043;28;20106;-75
2021/07/04 10:16:12;;;;;;;6.10;5.03;;;;;;;31.75;27.34;99261.19;5040897;28;20040;-75
2021/07/04 10:18:38;;;;;;;;;;;;;;;31.79;28.00;99256.72;5036419;28;20033;-75
2021/07/04 10:21:05;;;;;;;3.10;2.80;;;;;;;32.12;27.47;99254.47;5040013;28;20160;-75
2021/07/04 10:23:30;;;;;;;4.63;2.72;;;;;;;32.17;28.09;99251.56;5038117;28;20257;-74
2021/07/04 10:25:58;;;;;;;6.55;2.60;;;;;;;31.78;27.83;99246.88;5038418;28;21388;-74
2021/07/04 10:28:36;;;;;;;3.83;2.53;;;;;;;31.94;27.90;99252.75;5032352;28;20026;-74
2021/07/04 10:31:07;;;;;;;7.63;2.88;;;;;;;32.15;28.01;99253.00;5036592;28;20029;-74
2021/07/04 10:33:33;;;;;;;9.25;2.80;;;;;;;32.06;28.26;99242.03;5029680;28;20108;-75
2021/07/04 10:36:09;;;;;;;3.38;2.83;;;;;;;32.03;27.63;99248.94;5040041;28;20079;-75
2021/07/04 10:38:55;;;;;;;4.25;2.60;;;;;;;32.07;28.27;99236.22;5036799;28;20032;-75
2021/07/04 10:41:25;;;;;;;4.53;2.70;;;;;;;31.95;27.80;99246.97;5032783;28;20052;-75
2021/07/04 10:43:57;;;;;;;8.27;3.50;;;;;;;32.10;27.47;99244.94;5035587;28;20039;-76
2021/07/04 10:46:48;;;;;;;5.85;3.67;;;;;;;31.94;26.35;99244.56;5039537;28;20041;-75
2021/07/04 10:49:18;;;;;;;3.75;2.65;;;;;;;31.69;26.21;99243.25;5032752;28;20386;-76
2021/07/04 10:51:54;;;;;;;3.90;2.47;;;;;;;31.74;25.48;99235.75;5032598;28;20038;-75
2021/07/04 10:54:38;;;;;;;10.82;2.88;;;;;;;31.76;26.92;99246.41;5045039;28;20033;-75
2021/07/04 10:57:08;;;;;;;;;;;;;;;31.62;25.49;99231.94;5035584;28;20053;-76
2021/07/04 11:00:00;;;;;;;5.68;2.10;;;;;;;31.36;25.59;99201.69;5029537;28;19917;-75
2021/07/04 11:03:00;;;;;;;4.43;2.50;;;;;;;31.85;26.54;99221.81;5038641;28;20345;-76
2021/07/04 11:05:31;;;;;;;2.38;2.05;;;;;;;32.01;26.22;99217.53;5032777;28;20039;-74
2021/07/04 11:07:56;;;;;;;3.65;2.45;;;;;;;32.06;25.15;99217.38;5041477;28;20311;-74
2021/07/04 11:10:27;;;;;;;5.68;2.50;;;;;;;32.04;24.88;99211.41;5042031;28;20091;-74
2021/07/04 11:13:16;;;;;;;4.82;2.65;;;;;;;31.70;26.29;99218.34;5041870;28;20075;-74
2021/07/04 11:15:49;;;;;;;6.60;3.03;;;;;;;31.86;26.40;99210.53;5033967;28;20327;-76
2021/07/04 11:18:16;;;;;;;4.50;2.53;;;;;;;32.15;26.65;99211.94;5041855;28;20311;-75
2021/07/04 11:20:43;;;;;;;5.32;2.30;;;;;;;32.24;26.71;99191.69;5040610;28;20044;-75
2021/07/04 11:23:09;;;;;;;2.78;2.50;;;;;;;32.27;26.82;99196.56;5040547;28;20036;-75
2021/07/04 11:25:43;;;;;;;5.30;2.35;;;;;;;32.18;26.75;99184.72;5041615;28;20029;-75
2021/07/04 11:28:14;;;;;;;3.83;2.40;;;;;;;32.23;26.58;99200.19;5040325;28;20064;-76
2021/07/04 11:30:40;;;;;;;11.23;3.00;;;;;;;32.25;27.42;99193.34;5042256;28;20573;-75
2021/07/04 11:33:42;;;;;;;5.22;2.60;;;;;;;32.32;26.45;99199.16;5041826;28;20048;-76
2021/07/04 11:36:20;;;;;;;8.65;2.90;;;;;;;32.32;26.39;99198.34;5064900;28;20033;-75